createdAt,value
2018-02-05T00:01:37.232Z,4.73
2018-02-05T00:04:04.680Z,4.67
2018-02-05T00:06:32.145Z,4.81
2018-02-05T00:08:59.605Z,4.79
2018-02-05T00:11:27.057Z,4.74
2018-02-05T00:13:54.503Z,4.68
2018-02-05T00:16:21.936Z,4.50
2018-02-05T00:18:49.380Z,4.52
2018-02-05T00:21:16.892Z,4.58
2018-02-05T00:23:44.333Z,4.84
2018-02-05T00:26:11.792Z,4.70
2018-02-05T00:28:39.239Z,4.90
2018-02-05T00:31:06.661Z,5.12
2018-02-05T00:33:34.704Z,5.26
2018-02-05T00:36:02.160Z,5.28
2018-02-05T00:38:29.618Z,5.10
2018-02-05T00:40:57.076Z,4.93
2018-02-05T00:43:24.523Z,5.18
2018-02-05T00:45:51.956Z,5.14
2018-02-05T00:48:19.407Z,5.07
2018-02-05T00:50:46.832Z,5.18
2018-02-05T00:53:14.293Z,5.40
2018-02-05T00:55:41.733Z,5.07
2018-02-05T00:58:09.464Z,5.06
2018-02-05T01:00:38.373Z,5.02
2018-02-05T01:03:06.173Z,4.96
2018-02-05T01:05:33.646Z,4.96
2018-02-05T01:08:01.088Z,5.16
2018-02-05T01:10:28.565Z,4.61
2018-02-05T01:12:56.000Z,4.47
2018-02-05T01:15:23.444Z,4.84
2018-02-05T01:17:50.881Z,4.79
2018-02-05T01:20:18.343Z,5.00
2018-02-05T01:22:45.792Z,4.83
2018-02-05T01:25:13.257Z,4.73
2018-02-05T01:27:40.679Z,4.75
2018-02-05T01:30:08.127Z,5.08
2018-02-05T01:32:36.665Z,5.10
2018-02-05T01:35:04.200Z,4.96
2018-02-05T01:37:31.658Z,5.06
2018-02-05T01:39:59.128Z,5.07
2018-02-05T01:42:26.589Z,5.08
2018-02-05T01:44:54.038Z,5.35
2018-02-05T01:47:21.500Z,5.29
2018-02-05T01:49:48.944Z,5.29
2018-02-05T01:52:16.398Z,5.13
2018-02-05T01:54:43.871Z,5.12
2018-02-05T01:57:11.327Z,5.17
2018-02-05T01:59:38.752Z,5.00
2018-02-05T02:02:07.503Z,5.07
2018-02-05T02:04:35.050Z,4.84
2018-02-05T02:07:02.532Z,4.95
2018-02-05T02:09:29.967Z,4.84
2018-02-05T02:11:57.409Z,4.90
2018-02-05T02:14:24.852Z,4.71
2018-02-05T02:16:52.316Z,4.79
2018-02-05T02:19:19.772Z,4.74
2018-02-05T02:21:47.245Z,4.96
2018-02-05T02:24:14.688Z,4.84
2018-02-05T02:26:42.140Z,5.09
2018-02-05T02:29:09.603Z,4.98
2018-02-05T02:31:37.045Z,5.01
2018-02-05T02:34:04.632Z,4.59
2018-02-05T02:36:32.176Z,4.91
2018-02-05T02:38:59.625Z,4.99
2018-02-05T02:41:27.107Z,4.88
2018-02-05T02:43:54.551Z,4.99
2018-02-05T02:46:21.980Z,5.01
2018-02-05T02:48:49.433Z,4.98
2018-02-05T02:51:16.860Z,4.83
2018-02-05T02:53:44.396Z,4.77
2018-02-05T02:56:11.840Z,4.65
2018-02-05T02:58:39.305Z,4.54
2018-02-05T03:01:06.733Z,4.62
2018-02-05T03:03:34.169Z,4.43
2018-02-05T03:06:01.654Z,4.50
2018-02-05T03:08:29.108Z,4.35
2018-02-05T03:10:56.545Z,4.60
2018-02-05T03:13:24.068Z,4.77
2018-02-05T03:15:51.501Z,4.55
2018-02-05T03:18:18.933Z,4.63
2018-02-05T03:20:46.385Z,4.48
2018-02-05T03:23:13.817Z,4.60
2018-02-05T03:25:41.353Z,4.48
2018-02-05T03:28:08.767Z,4.22
2018-02-05T03:30:36.872Z,4.11
2018-02-05T03:33:04.317Z,3.95
2018-02-05T03:35:31.769Z,4.15
2018-02-05T03:37:59.193Z,4.23
2018-02-05T03:40:26.716Z,4.52
2018-02-05T03:42:54.162Z,4.39
2018-02-05T03:45:21.613Z,4.59
2018-02-05T03:47:49.071Z,4.63
2018-02-05T03:50:16.620Z,4.21
2018-02-05T03:52:44.045Z,4.19
2018-02-05T03:55:11.809Z,4.45
2018-02-05T03:57:39.236Z,4.53
2018-02-05T04:00:07.100Z,4.49
2018-02-05T04:02:34.536Z,4.45
2018-02-05T04:05:01.993Z,4.58
2018-02-05T04:07:29.428Z,4.59
2018-02-05T04:09:56.888Z,4.22
2018-02-05T04:12:24.340Z,4.25
2018-02-05T04:14:51.779Z,4.42
2018-02-05T04:17:19.272Z,4.23
2018-02-05T04:19:46.693Z,4.32
2018-02-05T04:22:14.149Z,4.32
2018-02-05T04:24:41.586Z,4.34
2018-02-05T04:27:09.032Z,4.45
2018-02-05T04:29:37.320Z,4.43
2018-02-05T04:32:04.793Z,4.02
2018-02-05T04:34:32.257Z,4.44
2018-02-05T04:36:59.716Z,4.46
2018-02-05T04:39:27.176Z,4.35
2018-02-05T04:41:54.617Z,4.16
2018-02-05T04:44:22.047Z,4.30
2018-02-05T04:46:49.511Z,4.48
2018-02-05T04:49:16.967Z,4.40
2018-02-05T04:51:44.436Z,4.26
2018-02-05T04:54:11.949Z,4.12
2018-02-05T04:56:39.397Z,4.22
2018-02-05T04:59:07.297Z,4.14
2018-02-05T05:01:34.744Z,4.49
2018-02-05T05:04:02.177Z,4.40
2018-02-05T05:06:29.623Z,3.99
2018-02-05T05:08:57.127Z,4.16
2018-02-05T05:11:24.564Z,3.84
2018-02-05T05:13:51.997Z,3.99
2018-02-05T05:16:19.541Z,4.18
2018-02-05T05:18:46.969Z,3.96
2018-02-05T05:21:14.441Z,4.06
2018-02-05T05:23:41.875Z,3.88
2018-02-05T05:26:09.306Z,3.88
2018-02-05T05:28:37.525Z,3.92
2018-02-05T05:31:05.328Z,3.88
2018-02-05T05:33:32.784Z,3.77
2018-02-05T05:36:00.226Z,3.91
2018-02-05T05:38:27.707Z,3.71
2018-02-05T05:40:55.150Z,3.77
2018-02-05T05:43:22.723Z,3.74
2018-02-05T05:45:50.164Z,4.01
2018-02-05T05:48:17.617Z,3.87
2018-02-05T05:50:45.201Z,3.59
2018-02-05T05:53:12.703Z,3.90
2018-02-05T05:55:40.162Z,3.80
2018-02-05T05:58:07.614Z,3.85
2018-02-05T06:00:35.045Z,3.91
2018-02-05T06:03:02.511Z,3.88
2018-02-05T06:05:29.952Z,3.81
2018-02-05T06:07:57.555Z,3.60
2018-02-05T06:10:25.025Z,3.82
2018-02-05T06:12:52.505Z,4.00
2018-02-05T06:15:20.080Z,4.02
2018-02-05T06:17:47.594Z,3.66
2018-02-05T06:20:15.052Z,3.37
2018-02-05T06:22:42.494Z,3.61
2018-02-05T06:25:09.958Z,3.57
2018-02-05T06:27:38.056Z,3.82
2018-02-05T06:42:59.718Z,3.86
2018-02-05T06:45:27.174Z,3.57
2018-02-05T06:47:54.609Z,3.52
2018-02-05T06:50:33.816Z,3.63
2018-02-05T06:53:13.005Z,3.82
2018-02-05T06:55:47.414Z,3.64
2018-02-05T06:58:14.927Z,3.69
2018-02-05T07:00:42.396Z,3.33
2018-02-05T07:03:09.846Z,3.67
2018-02-05T07:05:37.920Z,3.54
2018-02-05T07:08:05.392Z,3.85
2018-02-05T07:10:32.850Z,3.72
2018-02-05T07:13:00.290Z,3.50
2018-02-05T07:15:27.758Z,3.56
2018-02-05T07:17:55.195Z,3.73
2018-02-05T07:20:22.654Z,3.81
2018-02-05T07:22:50.116Z,3.71
2018-02-05T07:25:17.752Z,3.68
2018-02-05T07:27:45.206Z,3.67
2018-02-05T07:30:12.642Z,3.76
2018-02-05T07:32:40.098Z,3.78
2018-02-05T07:35:08.052Z,3.91
2018-02-05T07:37:35.497Z,3.88
2018-02-05T07:40:02.934Z,3.69
2018-02-05T07:42:30.409Z,3.62
2018-02-05T07:44:57.837Z,3.59
2018-02-05T07:47:25.290Z,3.83
2018-02-05T07:49:52.777Z,4.01
2018-02-05T07:52:20.204Z,4.05
2018-02-05T07:54:47.641Z,3.90
2018-02-05T07:57:15.085Z,3.83
2018-02-05T07:59:42.586Z,4.01
2018-02-05T08:02:10.335Z,4.09
2018-02-05T08:04:38.200Z,3.96
2018-02-05T08:07:05.645Z,3.99
2018-02-05T08:09:33.136Z,3.95
2018-02-05T08:12:00.643Z,4.00
2018-02-05T08:14:28.080Z,3.96
2018-02-05T08:16:55.545Z,4.08
2018-02-05T08:19:23.001Z,3.88
2018-02-05T08:21:50.432Z,3.94
2018-02-05T08:24:17.942Z,4.06
2018-02-05T08:26:46.035Z,4.00
2018-02-05T08:29:13.776Z,4.20
2018-02-05T08:31:41.310Z,4.28
2018-02-05T08:34:08.997Z,4.23
2018-02-05T08:36:36.432Z,4.53
2018-02-05T08:39:03.911Z,4.67
2018-02-05T08:41:31.350Z,4.61
2018-02-05T08:43:58.850Z,4.51
2018-02-05T08:46:26.319Z,4.49
2018-02-05T08:48:53.769Z,4.64
2018-02-05T08:51:21.217Z,4.87
2018-02-05T08:53:48.693Z,4.53
2018-02-05T08:56:16.237Z,4.70
2018-02-05T08:58:52.604Z,4.86
2018-02-05T09:01:26.370Z,4.49
2018-02-05T09:03:53.930Z,4.91
2018-02-05T09:06:21.424Z,4.45
2018-02-05T09:08:48.899Z,4.58
2018-02-05T09:11:16.345Z,4.87
2018-02-05T09:13:43.897Z,4.99
2018-02-05T09:16:11.425Z,4.87
2018-02-05T09:18:38.861Z,5.26
2018-02-05T09:21:06.426Z,5.42
2018-02-05T09:23:33.912Z,5.62
2018-02-05T09:26:02.465Z,5.52
2018-02-05T09:28:29.898Z,5.56
2018-02-05T09:30:57.405Z,6.06
2018-02-05T09:33:24.897Z,5.63
2018-02-05T09:35:52.496Z,5.57
2018-02-05T09:38:20.006Z,5.90
2018-02-05T09:40:47.453Z,5.73
2018-02-05T09:43:14.896Z,5.76
2018-02-05T09:45:42.364Z,5.60
2018-02-05T09:48:09.786Z,5.51
2018-02-05T09:50:37.262Z,5.72
2018-02-05T09:53:04.710Z,5.99
2018-02-05T09:55:32.147Z,5.94
2018-02-05T09:57:59.587Z,6.15
2018-02-05T10:00:27.061Z,6.18
2018-02-05T10:02:54.505Z,6.44
2018-02-05T10:05:21.994Z,6.62
2018-02-05T10:07:49.461Z,6.59
2018-02-05T10:10:16.893Z,6.78
2018-02-05T10:12:44.335Z,6.98
2018-02-05T10:15:11.765Z,6.89
2018-02-05T10:17:39.285Z,7.06
2018-02-05T10:20:06.676Z,7.08
2018-02-05T10:22:34.154Z,7.24
2018-02-05T10:25:01.609Z,7.17
2018-02-05T10:27:29.073Z,7.45
2018-02-05T10:29:56.523Z,7.25
2018-02-05T10:32:24.019Z,7.39
2018-02-05T10:34:51.495Z,7.06
2018-02-05T10:37:18.929Z,7.05
2018-02-05T10:39:46.419Z,7.18
2018-02-05T10:42:13.924Z,7.50
2018-02-05T10:44:41.382Z,7.15
2018-02-05T10:47:08.821Z,7.38
2018-02-05T10:49:36.367Z,7.04
2018-02-05T10:52:03.801Z,6.95
2018-02-05T10:54:31.259Z,7.00
2018-02-05T10:56:58.828Z,7.01
2018-02-05T10:59:26.406Z,7.25
2018-02-05T11:01:54.547Z,7.12
2018-02-05T11:04:21.988Z,6.81
2018-02-05T11:06:49.487Z,6.96
2018-02-05T11:09:16.900Z,7.00
2018-02-05T11:11:44.355Z,7.16
2018-02-05T11:14:11.795Z,7.01
2018-02-05T11:16:39.346Z,6.82
2018-02-05T11:19:06.786Z,6.78
2018-02-05T11:21:34.213Z,6.62
2018-02-05T11:24:01.658Z,6.55
2018-02-05T11:26:29.120Z,6.76
2018-02-05T11:28:56.549Z,6.90
2018-02-05T11:31:24.042Z,7.13
2018-02-05T11:33:51.498Z,7.13
2018-02-05T11:36:18.961Z,7.17
2018-02-05T11:38:46.381Z,7.29
2018-02-05T11:41:13.931Z,7.30
2018-02-05T11:43:41.405Z,7.36
2018-02-05T11:46:09.109Z,7.30
2018-02-05T11:48:36.589Z,7.50
2018-02-05T11:51:04.049Z,7.41
2018-02-05T11:53:31.507Z,7.72
2018-02-05T11:55:58.998Z,7.93
2018-02-05T11:58:26.417Z,7.95
2018-02-05T12:00:53.864Z,8.32
2018-02-05T12:03:21.300Z,8.57
2018-02-05T12:05:48.737Z,9.07
2018-02-05T12:08:16.177Z,9.28
2018-02-05T12:10:43.618Z,8.99
2018-02-05T12:13:11.049Z,9.34
2018-02-05T12:15:39.098Z,9.68
2018-02-05T12:18:06.522Z,9.60
2018-02-05T12:20:34.628Z,10.09
2018-02-05T12:23:02.109Z,10.26
2018-02-05T12:25:29.544Z,10.43
2018-02-05T12:27:56.993Z,10.58
2018-02-05T12:30:31.060Z,10.64
2018-02-05T12:32:58.595Z,10.58
2018-02-05T12:35:26.036Z,10.77
2018-02-05T12:37:53.524Z,10.96
2018-02-05T12:40:20.981Z,11.28
2018-02-05T12:42:48.434Z,11.04
2018-02-05T12:45:16.211Z,11.10
2018-02-05T12:47:43.649Z,11.74
2018-02-05T12:50:11.086Z,12.05
2018-02-05T12:52:39.270Z,11.97
2018-02-05T12:55:06.737Z,12.00
2018-02-05T12:57:34.190Z,12.48
2018-02-05T13:13:21.495Z,14.41
2018-02-05T13:15:48.956Z,14.81
2018-02-05T13:18:16.457Z,14.77
2018-02-05T13:20:43.949Z,15.26
2018-02-05T13:23:11.470Z,15.43
2018-02-05T13:25:39.033Z,15.97
2018-02-05T13:28:06.487Z,15.96
2018-02-05T13:30:33.962Z,15.92
2018-02-05T13:33:01.469Z,15.55
2018-02-05T13:35:28.905Z,16.27
2018-02-05T13:37:56.354Z,16.41
2018-02-05T13:40:23.799Z,16.88
2018-02-05T13:42:51.229Z,16.53
2018-02-05T13:45:18.672Z,16.43
2018-02-05T13:47:46.102Z,16.63
2018-02-05T13:50:13.631Z,16.36
2018-02-05T13:52:41.072Z,16.94
2018-02-05T13:55:09.516Z,17.14
2018-02-05T13:57:36.957Z,17.64
2018-02-05T14:00:04.398Z,17.46
2018-02-05T14:02:31.839Z,17.83
2018-02-05T14:04:59.281Z,17.94
2018-02-05T14:07:26.726Z,17.88
2018-02-05T14:09:54.187Z,18.15
2018-02-05T14:12:21.836Z,18.05
2018-02-05T14:14:49.281Z,18.00
2018-02-05T14:17:16.742Z,18.12
2018-02-05T14:19:44.178Z,18.06
2018-02-05T14:22:11.626Z,18.36
2018-02-05T14:24:39.628Z,18.50
2018-02-05T14:27:07.092Z,17.91
2018-02-05T14:29:34.530Z,17.93
2018-02-05T14:32:01.982Z,18.28
2018-02-05T14:34:29.399Z,17.85
2018-02-05T14:36:56.844Z,16.87
2018-02-05T14:39:24.274Z,15.19
2018-02-05T14:41:51.753Z,14.29
2018-02-05T14:44:19.185Z,13.49
2018-02-05T14:46:46.644Z,13.19
2018-02-05T14:49:14.074Z,12.51
2018-02-05T14:51:41.516Z,12.23
2018-02-05T14:54:09.741Z,11.99
2018-02-05T14:56:37.192Z,11.84
2018-02-05T14:59:04.639Z,11.67
2018-02-05T15:01:32.103Z,11.31
2018-02-05T15:03:59.577Z,11.20
2018-02-05T15:06:27.024Z,11.10
2018-02-05T15:08:54.469Z,11.00
2018-02-05T15:11:21.938Z,10.89
2018-02-05T15:13:49.401Z,10.67
2018-02-05T15:16:16.840Z,10.61
2018-02-05T15:18:44.474Z,10.26
2018-02-05T15:21:11.896Z,10.64
2018-02-05T15:23:39.884Z,10.42
2018-02-05T15:26:07.300Z,10.45
2018-02-05T15:28:34.754Z,10.03
2018-02-05T15:31:02.198Z,9.90
2018-02-05T15:33:29.621Z,10.04
2018-02-05T15:35:57.069Z,9.80
2018-02-05T15:38:24.508Z,9.38
2018-02-05T15:40:52.015Z,9.26
2018-02-05T15:43:19.405Z,9.37
2018-02-05T15:45:46.862Z,9.32
2018-02-05T15:48:14.374Z,9.37
2018-02-05T15:50:41.820Z,9.17
2018-02-05T15:53:10.185Z,9.10
2018-02-05T15:55:37.641Z,9.06
2018-02-05T15:58:05.124Z,9.06
2018-02-05T16:00:32.577Z,8.80
2018-02-05T16:03:00.133Z,8.80
2018-02-05T16:05:27.575Z,8.76
2018-02-05T16:07:55.072Z,8.52
2018-02-05T16:10:22.557Z,8.70
2018-02-05T16:12:49.974Z,8.79
2018-02-05T16:15:17.644Z,8.61
2018-02-05T16:17:45.061Z,8.29
2018-02-05T16:20:12.606Z,8.50
2018-02-05T16:22:40.092Z,8.21
2018-02-05T16:25:07.521Z,8.32
2018-02-05T16:27:35.001Z,8.03
2018-02-05T16:30:02.447Z,8.03
2018-02-05T16:32:29.873Z,7.83
2018-02-05T16:34:57.339Z,7.64
2018-02-05T16:37:24.761Z,7.69
2018-02-05T16:39:52.196Z,7.66
2018-02-05T16:42:19.825Z,7.73
2018-02-05T16:44:47.254Z,7.69
2018-02-05T16:47:14.741Z,7.81
2018-02-05T16:49:42.194Z,7.64
2018-02-05T16:52:10.376Z,7.07
2018-02-05T16:54:37.917Z,7.25
2018-02-05T16:57:05.464Z,7.33
2018-02-05T16:59:32.929Z,6.96
2018-02-05T17:02:00.401Z,6.87
2018-02-05T17:04:27.842Z,7.05
2018-02-05T17:06:55.287Z,6.68
2018-02-05T17:09:22.709Z,6.85
2018-02-05T17:11:50.145Z,6.73
2018-02-05T17:14:17.575Z,6.51
2018-02-05T17:16:45.170Z,6.66
2018-02-05T17:19:12.621Z,6.60
2018-02-05T17:21:40.382Z,7.00
2018-02-05T17:24:07.815Z,6.65
2018-02-05T17:26:35.448Z,6.60
2018-02-05T17:29:03.107Z,6.40
2018-02-05T17:31:30.773Z,6.30
2018-02-05T17:33:58.327Z,6.26
2018-02-05T17:36:25.750Z,6.20
2018-02-05T17:38:53.186Z,6.30
2018-02-05T17:41:20.725Z,6.42
2018-02-05T17:43:48.199Z,6.04
2018-02-05T17:46:15.633Z,6.00
2018-02-05T17:48:43.280Z,6.40
2018-02-05T17:51:10.765Z,6.28
2018-02-05T17:53:38.471Z,6.19
2018-02-05T17:56:05.914Z,6.20
2018-02-05T17:58:33.409Z,5.89
2018-02-05T18:01:00.825Z,5.77
2018-02-05T18:03:28.295Z,5.64
2018-02-05T18:05:55.793Z,6.14
2018-02-05T18:08:23.255Z,6.18
2018-02-05T18:10:50.874Z,6.06
2018-02-05T18:13:18.369Z,6.18
2018-02-05T18:15:46.523Z,6.04
2018-02-05T18:18:13.965Z,5.69
2018-02-05T18:20:41.400Z,5.90
2018-02-05T18:23:08.849Z,5.83
2018-02-05T18:25:36.360Z,5.78
2018-02-05T18:28:03.918Z,5.68
2018-02-05T18:30:31.395Z,5.56
2018-02-05T18:32:58.817Z,5.69
2018-02-05T18:35:26.501Z,5.46
2018-02-05T18:37:53.929Z,5.39
2018-02-05T18:40:21.365Z,5.59
2018-02-05T18:42:48.809Z,5.94
2018-02-05T18:45:16.361Z,5.62
2018-02-05T18:47:43.797Z,5.86
2018-02-05T18:50:11.249Z,5.75
2018-02-05T18:52:38.692Z,5.96
2018-02-05T18:55:06.440Z,6.25
2018-02-05T18:57:33.899Z,6.36
2018-02-05T19:13:27.112Z,5.68
2018-02-05T19:15:54.721Z,5.28
2018-02-05T19:18:23.129Z,5.56
2018-02-05T19:20:50.585Z,5.25
2018-02-05T19:23:18.133Z,5.58
2018-02-05T19:25:46.843Z,5.20
2018-02-05T19:28:14.536Z,5.22
2018-02-05T19:30:42.047Z,5.47
2018-02-05T19:33:10.833Z,5.14
2018-02-05T19:35:38.396Z,5.40
2018-02-05T19:38:05.892Z,5.49
2018-02-05T19:40:33.719Z,5.21
2018-02-05T19:43:01.820Z,5.50
2018-02-05T19:45:30.462Z,5.32
2018-02-05T19:47:57.953Z,5.65
2018-02-05T19:50:25.653Z,5.56
2018-02-05T19:52:53.105Z,5.63
2018-02-05T19:55:21.501Z,5.42
2018-02-05T19:57:51.137Z,5.27
2018-02-05T20:00:18.615Z,5.44
2018-02-05T20:02:46.094Z,5.29
2018-02-05T20:05:14.482Z,5.39
2018-02-05T20:07:46.441Z,4.73
2018-02-05T20:10:13.921Z,4.98
2018-02-05T20:12:43.225Z,5.18
2018-02-05T20:15:13.414Z,4.89
2018-02-05T20:17:40.995Z,5.25
2018-02-05T20:20:08.450Z,5.04
2018-02-05T20:22:35.952Z,5.04
2018-02-05T20:25:06.405Z,5.22
2018-02-05T20:27:35.556Z,5.39
2018-02-05T20:30:02.985Z,5.46
2018-02-05T20:32:30.529Z,5.07
2018-02-05T20:34:57.966Z,5.44
2018-02-05T20:37:26.772Z,5.41
2018-02-05T20:39:54.350Z,5.53
2018-02-05T20:42:22.054Z,5.12
2018-02-05T20:44:49.497Z,5.07
2018-02-05T20:47:16.949Z,5.30
2018-02-05T20:49:44.385Z,5.19
2018-02-05T20:52:11.832Z,5.61
2018-02-05T20:54:39.393Z,5.62
2018-02-05T20:57:06.980Z,5.45
2018-02-05T20:59:34.438Z,5.33
2018-02-05T21:02:01.930Z,5.30
2018-02-05T21:04:29.399Z,5.50
2018-02-05T21:06:56.829Z,5.35
2018-02-05T21:09:24.307Z,5.58
2018-02-05T21:11:52.205Z,5.42
2018-02-05T21:14:19.658Z,5.41
2018-02-05T21:16:47.141Z,5.36
2018-02-05T21:19:14.578Z,5.36
2018-02-05T21:21:42.018Z,5.35
2018-02-05T21:24:09.480Z,5.50
2018-02-05T21:26:36.945Z,5.07
2018-02-05T21:29:04.412Z,5.45
2018-02-05T21:31:31.855Z,5.35
2018-02-05T21:33:59.330Z,5.35
2018-02-05T21:36:26.897Z,5.15
2018-02-05T21:38:54.360Z,5.34
2018-02-05T21:41:21.790Z,5.27
2018-02-05T21:43:49.222Z,5.46
2018-02-05T21:46:16.672Z,5.79
2018-02-05T21:48:44.110Z,5.40
2018-02-05T21:51:11.756Z,5.42
2018-02-05T21:53:39.185Z,5.52
2018-02-05T21:56:06.680Z,5.38
2018-02-05T21:58:34.109Z,5.09
2018-02-05T22:01:01.550Z,5.20
2018-02-05T22:03:28.989Z,5.47
2018-02-05T22:05:56.445Z,5.60
2018-02-05T22:08:23.938Z,5.33
2018-02-05T22:10:51.385Z,5.62
2018-02-05T22:13:18.914Z,5.49
2018-02-05T22:15:46.379Z,5.63
2018-02-05T22:18:13.832Z,5.43
2018-02-05T22:20:42.134Z,5.41
2018-02-05T22:23:09.563Z,5.53
2018-02-05T22:25:37.068Z,5.44
2018-02-05T22:28:04.493Z,5.53
2018-02-05T22:30:31.942Z,5.54
2018-02-05T22:32:59.383Z,5.42
2018-02-05T22:35:26.854Z,5.69
2018-02-05T22:37:54.289Z,5.87
2018-02-05T22:40:21.768Z,5.61
2018-02-05T22:42:49.241Z,5.49
2018-02-05T22:45:16.694Z,5.41
2018-02-05T22:47:44.150Z,5.15
2018-02-05T22:50:11.806Z,5.29
2018-02-05T22:52:39.297Z,5.27
2018-02-05T22:55:06.752Z,5.31
2018-02-05T22:57:34.194Z,4.74
2018-02-05T23:00:01.640Z,5.39
2018-02-05T23:02:29.093Z,4.97
2018-02-05T23:04:56.540Z,5.10
2018-02-05T23:07:23.998Z,5.42
2018-02-05T23:09:51.440Z,5.31
2018-02-05T23:12:18.906Z,5.09
2018-02-05T23:14:46.343Z,5.24
2018-02-05T23:17:13.874Z,5.44
2018-02-05T23:19:41.814Z,5.78
2018-02-05T23:22:09.255Z,5.60
2018-02-05T23:24:36.809Z,5.48
2018-02-05T23:27:05.902Z,5.78
2018-02-05T23:29:33.393Z,5.56
2018-02-05T23:32:00.822Z,5.75
2018-02-05T23:34:28.276Z,5.42
2018-02-05T23:36:55.717Z,5.69
2018-02-05T23:39:23.196Z,5.62
2018-02-05T23:41:50.642Z,5.68
2018-02-05T23:44:18.265Z,5.61
2018-02-05T23:46:45.708Z,5.48
2018-02-05T23:49:13.153Z,5.46
2018-02-05T23:51:40.585Z,5.54
2018-02-05T23:54:08.091Z,5.71
2018-02-05T23:56:35.676Z,5.71
2018-02-05T23:59:03.132Z,5.29
